Time,TemperatureF,DewpointF,PressureIn,WindDirection,WindDirectionDegrees,WindSpeedMPH,WindSpeedGustMPH,Humidity,HourlyPrecipIn,Conditions,Clouds,dailyrainin,SolarRadiationWatts/m^2,SoftwareType,DateUTC
2013-09-02 00:04:00,78.0,76.0,30.14,SW,214,4.0,10.0,94,0.00,,,0.00,0.000000,,2013-09-02 04:04:00,
2013-09-02 00:14:00,78.0,76.0,30.14,SW,214,4.0,10.0,94,0.00,,,0.00,0.000000,,2013-09-02 04:14:00,
2013-09-02 00:44:00,77.0,75.0,30.15,SW,228,5.0,13.0,93,0.00,,,0.00,0.000000,,2013-09-02 04:44:00,
2013-09-02 00:54:00,77.0,75.0,30.15,SW,228,5.0,13.0,93,0.00,,,0.00,0.000000,,2013-09-02 04:54:00,
2013-09-02 01:04:00,77.0,75.0,30.15,SW,228,5.0,13.0,93,0.00,,,0.00,0.000000,,2013-09-02 05:04:00,
2013-09-02 01:13:00,77.0,75.0,30.15,SW,228,5.0,13.0,93,0.00,,,0.00,0.000000,,2013-09-02 05:13:00,
2013-09-02 01:44:00,77.0,74.0,30.14,NW,308,6.0,16.0,90,0.00,,,0.00,0.000000,,2013-09-02 05:44:00,
2013-09-02 01:52:00,77.0,74.0,30.14,NW,308,6.0,16.0,90,0.00,,,0.00,0.000000,,2013-09-02 05:52:00,
2013-09-02 02:03:00,77.0,74.0,30.14,NW,308,6.0,16.0,90,0.00,,,0.00,0.000000,,2013-09-02 06:03:00,
2013-09-02 02:12:00,77.0,74.0,30.14,NW,308,6.0,16.0,90,0.00,,,0.00,0.000000,,2013-09-02 06:12:00,
2013-09-02 02:43:00,73.0,72.0,30.13,SSW,195,2.0,16.0,97,0.00,,,0.00,0.000000,,2013-09-02 06:43:00,
2013-09-02 02:52:00,73.0,72.0,30.13,SSW,195,2.0,16.0,97,0.00,,,0.00,0.000000,,2013-09-02 06:52:00,
2013-09-02 03:01:00,73.0,72.0,30.13,SSW,195,2.0,16.0,97,0.00,,,0.00,0.000000,,2013-09-02 07:01:00,
2013-09-02 03:11:00,73.0,72.0,30.13,SSW,195,2.0,16.0,97,0.00,,,0.00,0.000000,,2013-09-02 07:11:00,
2013-09-02 03:42:00,73.0,72.0,30.12,SSW,208,2.0,4.0,98,0.00,,,0.00,0.000000,,2013-09-02 07:42:00,
2013-09-02 03:52:00,73.0,72.0,30.12,SSW,208,2.0,4.0,98,0.00,,,0.00,0.000000,,2013-09-02 07:52:00,
2013-09-02 04:02:00,73.0,72.0,30.12,SSW,208,2.0,4.0,98,0.00,,,0.00,0.000000,,2013-09-02 08:02:00,
2013-09-02 04:11:00,73.0,72.0,30.12,SSW,208,2.0,4.0,98,0.00,,,0.00,0.000000,,2013-09-02 08:11:00,
2013-09-02 04:42:00,76.0,75.0,30.12,West,275,3.0,7.0,97,0.00,,,0.00,0.000000,,2013-09-02 08:42:00,
2013-09-02 04:52:00,76.0,75.0,30.12,West,275,3.0,7.0,97,0.00,,,0.00,0.000000,,2013-09-02 08:52:00,
2013-09-02 05:01:00,76.0,75.0,30.12,West,275,3.0,7.0,97,0.00,,,0.00,0.000000,,2013-09-02 09:01:00,
2013-09-02 05:12:00,76.0,75.0,30.12,West,275,3.0,7.0,97,0.00,,,0.00,0.000000,,2013-09-02 09:12:00,
2013-09-02 05:44:00,76.0,75.0,30.11,SW,217,7.0,17.0,97,0.12,,,0.12,0.000000,,2013-09-02 09:44:00,
2013-09-02 05:53:00,76.0,75.0,30.11,SW,217,7.0,17.0,97,0.12,,,0.12,0.000000,,2013-09-02 09:53:00,
2013-09-02 06:03:00,76.0,75.0,30.11,SW,217,7.0,17.0,97,0.12,,,0.12,0.000000,,2013-09-02 10:03:00,
2013-09-02 06:13:00,76.0,75.0,30.11,SW,217,7.0,17.0,97,0.12,,,0.12,0.000000,,2013-09-02 10:13:00,
2013-09-02 06:43:00,75.0,74.0,30.12,SW,215,2.0,9.0,98,0.00,,,0.12,0.000000,,2013-09-02 10:43:00,
2013-09-02 06:53:00,75.0,74.0,30.12,SW,215,2.0,9.0,98,0.00,,,0.12,0.000000,,2013-09-02 10:53:00,
2013-09-02 07:03:00,75.0,74.0,30.12,SW,215,2.0,9.0,98,0.00,,,0.12,0.000000,,2013-09-02 11:03:00,
2013-09-02 07:12:00,75.0,74.0,30.12,SW,215,2.0,9.0,98,0.00,,,0.12,0.000000,,2013-09-02 11:12:00,
2013-09-02 07:42:00,76.0,75.0,30.13,WSW,248,6.0,11.0,97,0.00,,,0.12,0.000000,,2013-09-02 11:42:00,
2013-09-02 07:52:00,76.0,75.0,30.13,WSW,248,6.0,11.0,97,0.00,,,0.12,0.000000,,2013-09-02 11:52:00,
2013-09-02 08:02:00,76.0,75.0,30.13,WSW,248,6.0,11.0,97,0.00,,,0.12,0.000000,,2013-09-02 12:02:00,
2013-09-02 08:12:00,76.0,75.0,30.13,WSW,248,6.0,11.0,97,0.00,,,0.12,0.000000,,2013-09-02 12:12:00,
2013-09-02 08:43:00,77.0,76.0,30.14,West,260,3.0,10.0,97,0.00,,,0.12,5.000000,,2013-09-02 12:43:00,
2013-09-02 08:52:00,77.0,76.0,30.14,West,260,3.0,10.0,97,0.00,,,0.12,5.000000,,2013-09-02 12:52:00,
2013-09-02 09:02:00,77.0,76.0,30.14,West,260,3.0,10.0,97,0.00,,,0.12,5.000000,,2013-09-02 13:02:00,
2013-09-02 09:11:00,77.0,76.0,30.14,West,260,3.0,10.0,97,0.00,,,0.12,5.000000,,2013-09-02 13:11:00,
2013-09-02 09:42:00,79.0,77.0,30.15,West,267,4.0,13.0,93,0.00,,,0.12,74.000000,,2013-09-02 13:42:00,
2013-09-02 09:52:00,79.0,77.0,30.15,West,267,4.0,13.0,93,0.00,,,0.12,74.000000,,2013-09-02 13:52:00,
2013-09-02 10:02:00,79.0,77.0,30.15,West,267,4.0,13.0,93,0.00,,,0.12,74.000000,,2013-09-02 14:02:00,
2013-09-02 10:11:00,79.0,77.0,30.15,West,267,4.0,13.0,93,0.00,,,0.12,74.000000,,2013-09-02 14:11:00,
2013-09-02 10:43:00,86.0,79.0,30.16,West,273,5.0,15.0,80,0.00,,,0.12,360.000000,,2013-09-02 14:43:00,
2013-09-02 10:52:00,86.0,79.0,30.16,West,273,5.0,15.0,80,0.00,,,0.12,360.000000,,2013-09-02 14:52:00,
2013-09-02 11:02:00,86.0,79.0,30.16,West,273,5.0,15.0,80,0.00,,,0.12,360.000000,,2013-09-02 15:02:00,
2013-09-02 11:12:00,86.0,79.0,30.16,West,273,5.0,15.0,80,0.00,,,0.12,360.000000,,2013-09-02 15:12:00,
2013-09-02 11:45:00,88.0,77.0,30.16,WSW,248,5.0,14.0,70,0.00,,,0.12,638.000000,,2013-09-02 15:45:00,
2013-09-02 11:55:00,88.0,77.0,30.16,WSW,248,5.0,14.0,70,0.00,,,0.12,638.000000,,2013-09-02 15:55:00,
2013-09-02 12:04:00,88.0,77.0,30.16,WSW,248,5.0,14.0,70,0.00,,,0.12,638.000000,,2013-09-02 16:04:00,
2013-09-02 12:14:00,88.0,77.0,30.16,WSW,248,5.0,14.0,70,0.00,,,0.12,638.000000,,2013-09-02 16:14:00,
2013-09-02 12:43:00,89.0,76.0,30.14,West,269,5.0,16.0,66,0.00,,,0.12,834.000000,,2013-09-02 16:43:00,
2013-09-02 12:53:00,89.0,76.0,30.14,West,269,5.0,16.0,66,0.00,,,0.12,834.000000,,2013-09-02 16:53:00,
2013-09-02 13:03:00,89.0,76.0,30.14,West,269,5.0,16.0,66,0.00,,,0.12,834.000000,,2013-09-02 17:03:00,
2013-09-02 13:13:00,89.0,76.0,30.14,West,269,5.0,16.0,66,0.00,,,0.12,834.000000,,2013-09-02 17:13:00,
2013-09-02 13:45:00,92.0,77.0,30.13,North,9,7.0,17.0,61,0.00,,,0.12,728.000000,,2013-09-02 17:45:00,
2013-09-02 13:52:00,92.0,77.0,30.13,North,9,7.0,17.0,61,0.00,,,0.12,728.000000,,2013-09-02 17:52:00,
2013-09-02 14:02:00,92.0,77.0,30.13,North,9,7.0,17.0,61,0.00,,,0.12,728.000000,,2013-09-02 18:02:00,
2013-09-02 14:13:00,92.0,77.0,30.13,North,9,7.0,17.0,61,0.00,,,0.12,728.000000,,2013-09-02 18:13:00,
2013-09-02 14:42:00,89.0,77.0,30.11,South,184,6.0,16.0,67,0.00,,,0.12,593.000000,,2013-09-02 18:42:00,
2013-09-02 14:52:00,89.0,77.0,30.11,South,184,6.0,16.0,67,0.00,,,0.12,593.000000,,2013-09-02 18:52:00,
2013-09-02 15:02:00,89.0,77.0,30.11,South,184,6.0,16.0,67,0.00,,,0.12,593.000000,,2013-09-02 19:02:00,
2013-09-02 15:12:00,89.0,77.0,30.11,South,184,6.0,16.0,67,0.00,,,0.12,593.000000,,2013-09-02 19:12:00,
2013-09-02 15:42:00,88.0,77.0,30.09,SW,214,8.0,17.0,70,0.00,,,0.12,418.000000,,2013-09-02 19:42:00,
2013-09-02 15:52:00,88.0,77.0,30.09,SW,214,8.0,17.0,70,0.00,,,0.12,418.000000,,2013-09-02 19:52:00,
2013-09-02 16:02:00,88.0,77.0,30.09,SW,214,8.0,17.0,70,0.00,,,0.12,418.000000,,2013-09-02 20:02:00,
2013-09-02 16:12:00,88.0,77.0,30.09,SW,214,8.0,17.0,70,0.00,,,0.12,418.000000,,2013-09-02 20:12:00,
2013-09-02 16:42:00,93.0,73.0,30.07,West,264,6.0,15.0,53,0.00,,,0.12,399.000000,,2013-09-02 20:42:00,
2013-09-02 16:52:00,93.0,73.0,30.07,West,264,6.0,15.0,53,0.00,,,0.12,399.000000,,2013-09-02 20:52:00,
2013-09-02 17:02:00,93.0,73.0,30.07,West,264,6.0,15.0,53,0.00,,,0.12,399.000000,,2013-09-02 21:02:00,
2013-09-02 17:12:00,93.0,73.0,30.07,West,264,6.0,15.0,53,0.00,,,0.12,399.000000,,2013-09-02 21:12:00,
2013-09-02 17:44:00,93.0,73.0,30.07,West,267,5.0,19.0,53,0.00,,,0.12,683.000000,,2013-09-02 21:44:00,
2013-09-02 17:55:00,93.0,73.0,30.07,West,267,5.0,19.0,53,0.00,,,0.12,683.000000,,2013-09-02 21:55:00,
2013-09-02 18:04:00,93.0,73.0,30.07,West,267,5.0,19.0,53,0.00,,,0.12,683.000000,,2013-09-02 22:04:00,
2013-09-02 18:13:00,93.0,73.0,30.07,West,267,5.0,19.0,53,0.00,,,0.12,683.000000,,2013-09-02 22:13:00,
2013-09-02 18:44:00,89.0,75.0,30.06,West,266,4.0,14.0,64,0.00,,,0.12,320.000000,,2013-09-02 22:44:00,
2013-09-02 18:54:00,89.0,75.0,30.06,West,266,4.0,14.0,64,0.00,,,0.12,320.000000,,2013-09-02 22:54:00,
2013-09-02 19:03:00,89.0,75.0,30.06,West,266,4.0,14.0,64,0.00,,,0.12,320.000000,,2013-09-02 23:03:00,
2013-09-02 19:12:00,89.0,75.0,30.06,West,266,4.0,14.0,64,0.00,,,0.12,320.000000,,2013-09-02 23:12:00,
2013-09-02 19:42:00,85.0,78.0,30.08,SSW,206,4.0,10.0,81,0.00,,,0.12,57.000000,,2013-09-02 23:42:00,
2013-09-02 19:53:00,85.0,78.0,30.08,SSW,206,4.0,10.0,81,0.00,,,0.12,57.000000,,2013-09-02 23:53:00,
2013-09-02 20:02:00,85.0,78.0,30.08,SSW,206,4.0,10.0,81,0.00,,,0.12,57.000000,,2013-09-03 00:02:00,
2013-09-02 20:12:00,85.0,78.0,30.08,SSW,206,4.0,10.0,81,0.00,,,0.12,57.000000,,2013-09-03 00:12:00,
2013-09-02 21:42:00,75.0,73.0,30.09,SSW,208,3.0,8.0,93,-99.99,,,0.15,0.000000,,2013-09-03 01:42:00,
2013-09-02 21:52:00,75.0,73.0,30.09,SSW,208,3.0,8.0,93,-99.99,,,0.15,0.000000,,2013-09-03 01:52:00,
2013-09-02 22:02:00,75.0,73.0,30.09,SSW,208,3.0,8.0,93,-99.99,,,0.15,0.000000,,2013-09-03 02:02:00,
2013-09-02 22:12:00,75.0,73.0,30.09,SSW,208,3.0,8.0,93,-99.99,,,0.15,0.000000,,2013-09-03 02:12:00,
2013-09-02 22:42:00,75.0,74.0,30.10,SW,225,4.0,9.0,97,0.00,,,0.15,0.000000,,2013-09-03 02:42:00,
2013-09-02 22:52:00,75.0,74.0,30.10,SW,225,4.0,9.0,97,0.00,,,0.15,0.000000,,2013-09-03 02:52:00,
2013-09-02 23:02:00,75.0,74.0,30.10,SW,225,4.0,9.0,97,0.00,,,0.15,0.000000,,2013-09-03 03:02:00,
2013-09-02 23:11:00,75.0,74.0,30.10,SW,225,4.0,9.0,97,0.00,,,0.15,0.000000,,2013-09-03 03:11:00,
2013-09-02 23:45:00,78.0,77.0,30.11,SW,229,4.0,12.0,97,0.00,,,0.15,0.000000,,2013-09-03 03:45:00,
2013-09-02 23:55:00,78.0,77.0,30.11,SW,229,4.0,12.0,97,0.00,,,0.15,0.000000,,2013-09-03 03:55:00,